sensor_id;sensor_type;location;lat;lon;timestamp;P1;durP1;ratioP1;P2;durP2;ratioP2
54502;SDS011;40411;50.090;21.954;2024-01-16T00:01:46;10.57;;;4.82;;
54502;SDS011;40411;50.090;21.954;2024-01-16T00:04:12;31.60;;;7.40;;
54502;SDS011;40411;50.090;21.954;2024-01-16T00:06:41;13.55;;;6.32;;
54502;SDS011;40411;50.090;21.954;2024-01-16T00:09:07;11.85;;;4.05;;
54502;SDS011;40411;50.090;21.954;2024-01-16T00:11:34;11.52;;;5.40;;
54502;SDS011;40411;50.090;21.954;2024-01-16T00:14:05;8.18;;;3.90;;
54502;SDS011;40411;50.090;21.954;2024-01-16T00:16:31;14.48;;;4.30;;
54502;SDS011;40411;50.090;21.954;2024-01-16T00:18:56;7.53;;;3.35;;
54502;SDS011;40411;50.090;21.954;2024-01-16T00:21:22;21.83;;;6.15;;
54502;SDS011;40411;50.090;21.954;2024-01-16T00:23:48;11.52;;;5.00;;
54502;SDS011;40411;50.090;21.954;2024-01-16T00:26:22;10.18;;;4.32;;
54502;SDS011;40411;50.090;21.954;2024-01-16T00:28:48;14.48;;;4.47;;
54502;SDS011;40411;50.090;21.954;2024-01-16T00:31:14;16.75;;;5.22;;
54502;SDS011;40411;50.090;21.954;2024-01-16T00:33:40;12.25;;;5.05;;
54502;SDS011;40411;50.090;21.954;2024-01-16T00:36:06;16.40;;;5.47;;
54502;SDS011;40411;50.090;21.954;2024-01-16T00:38:35;14.00;;;4.95;;
54502;SDS011;40411;50.090;21.954;2024-01-16T00:41:01;10.23;;;3.97;;
54502;SDS011;40411;50.090;21.954;2024-01-16T00:43:27;2.95;;;1.45;;
54502;SDS011;40411;50.090;21.954;2024-01-16T00:45:53;16.13;;;3.63;;
54502;SDS011;40411;50.090;21.954;2024-01-16T00:48:18;10.82;;;3.78;;
54502;SDS011;40411;50.090;21.954;2024-01-16T00:50:46;10.82;;;4.47;;
54502;SDS011;40411;50.090;21.954;2024-01-16T00:53:17;17.25;;;3.88;;
54502;SDS011;40411;50.090;21.954;2024-01-16T00:55:43;14.80;;;5.82;;
54502;SDS011;40411;50.090;21.954;2024-01-16T00:58:09;7.43;;;2.88;;
54502;SDS011;40411;50.090;21.954;2024-01-16T01:00:35;6.80;;;2.83;;
54502;SDS011;40411;50.090;21.954;2024-01-16T01:03:03;4.78;;;2.05;;
54502;SDS011;40411;50.090;21.954;2024-01-16T01:05:29;15.65;;;6.10;;
54502;SDS011;40411;50.090;21.954;2024-01-16T01:07:55;10.32;;;3.38;;
54502;SDS011;40411;50.090;21.954;2024-01-16T01:10:21;16.75;;;4.25;;
54502;SDS011;40411;50.090;21.954;2024-01-16T01:12:47;7.63;;;3.08;;
54502;SDS011;40411;50.090;21.954;2024-01-16T01:15:13;5.32;;;2.83;;
54502;SDS011;40411;50.090;21.954;2024-01-16T01:17:39;9.13;;;3.17;;
54502;SDS011;40411;50.090;21.954;2024-01-16T01:20:07;7.43;;;2.70;;
54502;SDS011;40411;50.090;21.954;2024-01-16T01:22:33;10.82;;;4.25;;
54502;SDS011;40411;50.090;21.954;2024-01-16T01:25:00;6.25;;;3.40;;
54502;SDS011;40411;50.090;21.954;2024-01-16T01:27:25;12.30;;;3.97;;
54502;SDS011;40411;50.090;21.954;2024-01-16T01:29:51;5.75;;;2.65;;
54502;SDS011;40411;50.090;21.954;2024-01-16T01:32:17;4.95;;;1.95;;
54502;SDS011;40411;50.090;21.954;2024-01-16T01:34:43;19.75;;;4.75;;
54502;SDS011;40411;50.090;21.954;2024-01-16T01:37:09;16.13;;;5.60;;
54502;SDS011;40411;50.090;21.954;2024-01-16T01:39:35;13.35;;;4.18;;
54502;SDS011;40411;50.090;21.954;2024-01-16T01:42:01;6.78;;;3.13;;
54502;SDS011;40411;50.090;21.954;2024-01-16T01:44:27;7.30;;;2.85;;
54502;SDS011;40411;50.090;21.954;2024-01-16T01:46:55;8.57;;;2.95;;
54502;SDS011;40411;50.090;21.954;2024-01-16T01:49:22;8.80;;;4.15;;
54502;SDS011;40411;50.090;21.954;2024-01-16T01:51:48;14.43;;;5.15;;
54502;SDS011;40411;50.090;21.954;2024-01-16T01:54:15;12.80;;;3.78;;
54502;SDS011;40411;50.090;21.954;2024-01-16T01:56:42;6.22;;;2.88;;
54502;SDS011;40411;50.090;21.954;2024-01-16T01:59:10;6.03;;;2.55;;
54502;SDS011;40411;50.090;21.954;2024-01-16T02:01:36;8.35;;;4.15;;
54502;SDS011;40411;50.090;21.954;2024-01-16T02:04:04;5.53;;;2.30;;
54502;SDS011;40411;50.090;21.954;2024-01-16T02:06:30;10.18;;;3.25;;
54502;SDS011;40411;50.090;21.954;2024-01-16T02:08:56;2.75;;;1.23;;
54502;SDS011;40411;50.090;21.954;2024-01-16T02:11:22;5.55;;;2.40;;
54502;SDS011;40411;50.090;21.954;2024-01-16T02:13:48;5.72;;;2.45;;
54502;SDS011;40411;50.090;21.954;2024-01-16T02:16:18;7.90;;;3.05;;
54502;SDS011;40411;50.090;21.954;2024-01-16T02:18:48;6.72;;;3.13;;
54502;SDS011;40411;50.090;21.954;2024-01-16T02:21:18;6.70;;;3.33;;
54502;SDS011;40411;50.090;21.954;2024-01-16T02:23:51;6.10;;;2.13;;
54502;SDS011;40411;50.090;21.954;2024-01-16T02:26:17;4.47;;;2.80;;
54502;SDS011;40411;50.090;21.954;2024-01-16T02:28:44;4.80;;;2.03;;
54502;SDS011;40411;50.090;21.954;2024-01-16T02:31:10;7.30;;;2.75;;
54502;SDS011;40411;50.090;21.954;2024-01-16T02:33:36;13.15;;;2.58;;
54502;SDS011;40411;50.090;21.954;2024-01-16T02:36:03;4.55;;;2.00;;
54502;SDS011;40411;50.090;21.954;2024-01-16T02:38:29;6.10;;;2.50;;
54502;SDS011;40411;50.090;21.954;2024-01-16T02:40:55;7.53;;;2.70;;
54502;SDS011;40411;50.090;21.954;2024-01-16T02:43:21;5.20;;;2.60;;
54502;SDS011;40411;50.090;21.954;2024-01-16T02:45:47;5.18;;;2.33;;
54502;SDS011;40411;50.090;21.954;2024-01-16T02:48:13;5.43;;;1.85;;
54502;SDS011;40411;50.090;21.954;2024-01-16T02:50:39;5.70;;;3.03;;
54502;SDS011;40411;50.090;21.954;2024-01-16T02:53:05;4.35;;;2.05;;
54502;SDS011;40411;50.090;21.954;2024-01-16T02:55:30;5.32;;;2.70;;
54502;SDS011;40411;50.090;21.954;2024-01-16T02:57:56;4.88;;;2.50;;
54502;SDS011;40411;50.090;21.954;2024-01-16T03:00:22;5.22;;;2.25;;
54502;SDS011;40411;50.090;21.954;2024-01-16T03:02:48;5.22;;;2.55;;
54502;SDS011;40411;50.090;21.954;2024-01-16T03:05:14;5.97;;;3.17;;
54502;SDS011;40411;50.090;21.954;2024-01-16T03:07:40;7.20;;;2.55;;
54502;SDS011;40411;50.090;21.954;2024-01-16T03:10:06;3.33;;;1.42;;
54502;SDS011;40411;50.090;21.954;2024-01-16T03:12:33;5.72;;;1.88;;
54502;SDS011;40411;50.090;21.954;2024-01-16T03:14:58;5.70;;;2.42;;
54502;SDS011;40411;50.090;21.954;2024-01-16T03:17:25;4.88;;;2.33;;
54502;SDS011;40411;50.090;21.954;2024-01-16T03:19:51;7.93;;;3.08;;
54502;SDS011;40411;50.090;21.954;2024-01-16T03:22:17;8.80;;;3.17;;
54502;SDS011;40411;50.090;21.954;2024-01-16T03:24:43;5.18;;;2.60;;
54502;SDS011;40411;50.090;21.954;2024-01-16T03:27:09;4.60;;;2.50;;
54502;SDS011;40411;50.090;21.954;2024-01-16T03:29:35;3.53;;;1.70;;
54502;SDS011;40411;50.090;21.954;2024-01-16T03:32:01;4.88;;;1.80;;
54502;SDS011;40411;50.090;21.954;2024-01-16T03:34:27;8.90;;;2.92;;
54502;SDS011;40411;50.090;21.954;2024-01-16T03:36:53;5.70;;;3.33;;
54502;SDS011;40411;50.090;21.954;2024-01-16T03:39:19;6.93;;;3.00;;
54502;SDS011;40411;50.090;21.954;2024-01-16T03:41:45;4.55;;;2.35;;
54502;SDS011;40411;50.090;21.954;2024-01-16T03:44:11;3.60;;;1.88;;
54502;SDS011;40411;50.090;21.954;2024-01-16T03:46:37;7.82;;;3.15;;
54502;SDS011;40411;50.090;21.954;2024-01-16T03:49:02;6.75;;;2.95;;
54502;SDS011;40411;50.090;21.954;2024-01-16T03:51:28;7.35;;;3.80;;
54502;SDS011;40411;50.090;21.954;2024-01-16T03:53:54;5.78;;;2.88;;
54502;SDS011;40411;50.090;21.954;2024-01-16T03:56:20;6.32;;;3.35;;
54502;SDS011;40411;50.090;21.954;2024-01-16T03:58:46;8.57;;;3.65;;
54502;SDS011;40411;50.090;21.954;2024-01-16T04:01:12;6.72;;;2.78;;
54502;SDS011;40411;50.090;21.954;2024-01-16T04:03:38;4.93;;;2.40;;
54502;SDS011;40411;50.090;21.954;2024-01-16T04:06:16;10.90;;;2.35;;
54502;SDS011;40411;50.090;21.954;2024-01-16T04:08:43;6.15;;;2.72;;
54502;SDS011;40411;50.090;21.954;2024-01-16T04:11:12;9.82;;;2.67;;
54502;SDS011;40411;50.090;21.954;2024-01-16T04:13:39;4.55;;;2.13;;
54502;SDS011;40411;50.090;21.954;2024-01-16T04:16:06;7.00;;;2.97;;
54502;SDS011;40411;50.090;21.954;2024-01-16T04:18:39;6.45;;;2.55;;
54502;SDS011;40411;50.090;21.954;2024-01-16T04:21:06;5.13;;;2.33;;
54502;SDS011;40411;50.090;21.954;2024-01-16T04:23:32;3.90;;;1.88;;
54502;SDS011;40411;50.090;21.954;2024-01-16T04:25:58;5.70;;;2.22;;
54502;SDS011;40411;50.090;21.954;2024-01-16T04:28:24;6.70;;;2.22;;
54502;SDS011;40411;50.090;21.954;2024-01-16T04:30:51;4.82;;;1.92;;
54502;SDS011;40411;50.090;21.954;2024-01-16T04:33:17;5.03;;;2.50;;
54502;SDS011;40411;50.090;21.954;2024-01-16T04:35:43;11.77;;;2.90;;
54502;SDS011;40411;50.090;21.954;2024-01-16T04:38:09;5.40;;;2.83;;
54502;SDS011;40411;50.090;21.954;2024-01-16T04:40:35;8.43;;;3.90;;
54502;SDS011;40411;50.090;21.954;2024-01-16T04:43:01;7.13;;;2.78;;
54502;SDS011;40411;50.090;21.954;2024-01-16T04:45:28;7.25;;;1.83;;
54502;SDS011;40411;50.090;21.954;2024-01-16T04:47:54;7.05;;;2.80;;
54502;SDS011;40411;50.090;21.954;2024-01-16T04:50:20;6.50;;;2.85;;
54502;SDS011;40411;50.090;21.954;2024-01-16T04:52:45;5.45;;;1.67;;
54502;SDS011;40411;50.090;21.954;2024-01-16T04:55:11;7.22;;;3.10;;
54502;SDS011;40411;50.090;21.954;2024-01-16T04:57:37;3.58;;;2.05;;
54502;SDS011;40411;50.090;21.954;2024-01-16T05:00:04;8.98;;;4.00;;
54502;SDS011;40411;50.090;21.954;2024-01-16T05:02:32;10.07;;;4.78;;
54502;SDS011;40411;50.090;21.954;2024-01-16T05:04:59;5.95;;;3.00;;
54502;SDS011;40411;50.090;21.954;2024-01-16T05:07:25;7.50;;;3.28;;
54502;SDS011;40411;50.090;21.954;2024-01-16T05:09:52;10.60;;;4.78;;
54502;SDS011;40411;50.090;21.954;2024-01-16T05:12:19;6.18;;;2.90;;
54502;SDS011;40411;50.090;21.954;2024-01-16T05:14:45;9.18;;;4.75;;
54502;SDS011;40411;50.090;21.954;2024-01-16T05:17:10;9.02;;;3.97;;
54502;SDS011;40411;50.090;21.954;2024-01-16T05:19:37;5.82;;;3.15;;
54502;SDS011;40411;50.090;21.954;2024-01-16T05:22:03;8.40;;;2.75;;
54502;SDS011;40411;50.090;21.954;2024-01-16T05:24:29;8.10;;;3.72;;
54502;SDS011;40411;50.090;21.954;2024-01-16T05:26:56;6.95;;;3.67;;
54502;SDS011;40411;50.090;21.954;2024-01-16T05:29:22;8.15;;;3.42;;
54502;SDS011;40411;50.090;21.954;2024-01-16T05:31:48;12.02;;;5.15;;
54502;SDS011;40411;50.090;21.954;2024-01-16T05:34:14;8.95;;;3.63;;
54502;SDS011;40411;50.090;21.954;2024-01-16T05:36:41;12.48;;;4.63;;
54502;SDS011;40411;50.090;21.954;2024-01-16T05:39:07;11.13;;;4.13;;
54502;SDS011;40411;50.090;21.954;2024-01-16T05:41:34;12.65;;;5.63;;
54502;SDS011;40411;50.090;21.954;2024-01-16T05:44:00;11.13;;;4.07;;
54502;SDS011;40411;50.090;21.954;2024-01-16T05:46:30;6.32;;;3.10;;
54502;SDS011;40411;50.090;21.954;2024-01-16T05:48:57;11.10;;;3.65;;
54502;SDS011;40411;50.090;21.954;2024-01-16T05:51:23;8.70;;;3.17;;
54502;SDS011;40411;50.090;21.954;2024-01-16T05:53:51;6.60;;;3.70;;
54502;SDS011;40411;50.090;21.954;2024-01-16T05:56:16;7.32;;;3.65;;
54502;SDS011;40411;50.090;21.954;2024-01-16T05:58:42;9.07;;;3.83;;
54502;SDS011;40411;50.090;21.954;2024-01-16T06:01:08;13.35;;;6.53;;
54502;SDS011;40411;50.090;21.954;2024-01-16T06:03:34;6.50;;;4.07;;
54502;SDS011;40411;50.090;21.954;2024-01-16T06:06:00;10.15;;;4.00;;
54502;SDS011;40411;50.090;21.954;2024-01-16T06:08:26;14.85;;;4.93;;
54502;SDS011;40411;50.090;21.954;2024-01-16T06:10:51;10.95;;;4.32;;
54502;SDS011;40411;50.090;21.954;2024-01-16T06:13:20;22.80;;;6.82;;
54502;SDS011;40411;50.090;21.954;2024-01-16T06:15:47;18.75;;;8.30;;
54502;SDS011;40411;50.090;21.954;2024-01-16T06:18:13;11.32;;;5.65;;
54502;SDS011;40411;50.090;21.954;2024-01-16T06:20:38;12.38;;;6.38;;
54502;SDS011;40411;50.090;21.954;2024-01-16T06:23:04;8.65;;;4.65;;
54502;SDS011;40411;50.090;21.954;2024-01-16T06:25:30;12.88;;;5.47;;
54502;SDS011;40411;50.090;21.954;2024-01-16T06:27:58;12.35;;;6.18;;
54502;SDS011;40411;50.090;21.954;2024-01-16T06:30:24;7.90;;;2.90;;
54502;SDS011;40411;50.090;21.954;2024-01-16T06:32:51;6.38;;;2.92;;
54502;SDS011;40411;50.090;21.954;2024-01-16T06:35:21;14.32;;;4.47;;
54502;SDS011;40411;50.090;21.954;2024-01-16T06:37:49;8.45;;;4.32;;
54502;SDS011;40411;50.090;21.954;2024-01-16T06:40:15;4.60;;;2.40;;
54502;SDS011;40411;50.090;21.954;2024-01-16T06:42:42;14.60;;;4.18;;
54502;SDS011;40411;50.090;21.954;2024-01-16T06:45:08;7.63;;;3.47;;
54502;SDS011;40411;50.090;21.954;2024-01-16T06:47:34;5.30;;;2.65;;
54502;SDS011;40411;50.090;21.954;2024-01-16T06:50:00;6.22;;;3.00;;
54502;SDS011;40411;50.090;21.954;2024-01-16T06:52:26;10.20;;;4.43;;
54502;SDS011;40411;50.090;21.954;2024-01-16T06:54:52;6.30;;;3.38;;
54502;SDS011;40411;50.090;21.954;2024-01-16T06:57:18;12.40;;;6.35;;
54502;SDS011;40411;50.090;21.954;2024-01-16T06:59:44;6.80;;;2.90;;
54502;SDS011;40411;50.090;21.954;2024-01-16T07:02:11;8.85;;;2.97;;
54502;SDS011;40411;50.090;21.954;2024-01-16T07:04:41;9.85;;;2.20;;
54502;SDS011;40411;50.090;21.954;2024-01-16T07:07:17;5.35;;;2.78;;
54502;SDS011;40411;50.090;21.954;2024-01-16T07:09:49;5.35;;;2.92;;
54502;SDS011;40411;50.090;21.954;2024-01-16T07:12:16;10.77;;;2.33;;
54502;SDS011;40411;50.090;21.954;2024-01-16T07:14:41;5.85;;;2.63;;
54502;SDS011;40411;50.090;21.954;2024-01-16T07:17:09;10.02;;;3.60;;
54502;SDS011;40411;50.090;21.954;2024-01-16T07:19:34;6.25;;;3.38;;
54502;SDS011;40411;50.090;21.954;2024-01-16T07:22:00;5.97;;;2.95;;
54502;SDS011;40411;50.090;21.954;2024-01-16T07:24:26;9.05;;;4.22;;
54502;SDS011;40411;50.090;21.954;2024-01-16T07:26:52;5.88;;;3.67;;
54502;SDS011;40411;50.090;21.954;2024-01-16T07:29:20;7.43;;;3.83;;
54502;SDS011;40411;50.090;21.954;2024-01-16T07:31:48;6.53;;;2.50;;
54502;SDS011;40411;50.090;21.954;2024-01-16T07:34:13;8.25;;;3.72;;
54502;SDS011;40411;50.090;21.954;2024-01-16T07:36:45;5.47;;;2.95;;
54502;SDS011;40411;50.090;21.954;2024-01-16T07:39:11;5.38;;;2.72;;
54502;SDS011;40411;50.090;21.954;2024-01-16T07:41:37;7.38;;;4.25;;
54502;SDS011;40411;50.090;21.954;2024-01-16T07:44:03;7.65;;;3.60;;
54502;SDS011;40411;50.090;21.954;2024-01-16T07:46:29;7.90;;;3.78;;
54502;SDS011;40411;50.090;21.954;2024-01-16T07:48:55;3.35;;;1.70;;
54502;SDS011;40411;50.090;21.954;2024-01-16T07:51:21;6.55;;;3.17;;
54502;SDS011;40411;50.090;21.954;2024-01-16T07:53:47;5.88;;;2.67;;
54502;SDS011;40411;50.090;21.954;2024-01-16T07:56:14;8.45;;;2.45;;
54502;SDS011;40411;50.090;21.954;2024-01-16T07:58:40;6.97;;;2.80;;
54502;SDS011;40411;50.090;21.954;2024-01-16T08:01:06;5.90;;;2.80;;
54502;SDS011;40411;50.090;21.954;2024-01-16T08:03:32;9.18;;;2.97;;
54502;SDS011;40411;50.090;21.954;2024-01-16T08:05:58;5.50;;;2.60;;
54502;SDS011;40411;50.090;21.954;2024-01-16T08:08:24;2.72;;;1.55;;
54502;SDS011;40411;50.090;21.954;2024-01-16T08:10:50;6.35;;;2.75;;
54502;SDS011;40411;50.090;21.954;2024-01-16T08:13:16;9.25;;;3.20;;
54502;SDS011;40411;50.090;21.954;2024-01-16T08:15:42;5.43;;;2.67;;
54502;SDS011;40411;50.090;21.954;2024-01-16T08:18:07;9.25;;;3.45;;
54502;SDS011;40411;50.090;21.954;2024-01-16T08:20:33;6.03;;;3.28;;
54502;SDS011;40411;50.090;21.954;2024-01-16T08:22:59;9.20;;;3.45;;
54502;SDS011;40411;50.090;21.954;2024-01-16T08:25:25;8.52;;;2.88;;
54502;SDS011;40411;50.090;21.954;2024-01-16T08:27:51;6.25;;;2.17;;
54502;SDS011;40411;50.090;21.954;2024-01-16T08:30:17;5.00;;;2.40;;
54502;SDS011;40411;50.090;21.954;2024-01-16T08:32:42;4.70;;;2.42;;
54502;SDS011;40411;50.090;21.954;2024-01-16T08:35:08;6.80;;;3.70;;
54502;SDS011;40411;50.090;21.954;2024-01-16T08:37:34;5.85;;;2.20;;
54502;SDS011;40411;50.090;21.954;2024-01-16T08:40:00;5.25;;;3.15;;
54502;SDS011;40411;50.090;21.954;2024-01-16T08:42:26;3.80;;;2.40;;
54502;SDS011;40411;50.090;21.954;2024-01-16T08:44:52;5.55;;;2.40;;
54502;SDS011;40411;50.090;21.954;2024-01-16T08:47:18;5.10;;;2.58;;
54502;SDS011;40411;50.090;21.954;2024-01-16T08:49:44;4.22;;;2.88;;
54502;SDS011;40411;50.090;21.954;2024-01-16T08:52:10;7.30;;;2.55;;
54502;SDS011;40411;50.090;21.954;2024-01-16T08:54:36;3.55;;;1.65;;
54502;SDS011;40411;50.090;21.954;2024-01-16T08:57:02;3.22;;;1.98;;
54502;SDS011;40411;50.090;21.954;2024-01-16T08:59:28;4.47;;;2.25;;
54502;SDS011;40411;50.090;21.954;2024-01-16T09:01:54;4.05;;;1.38;;
54502;SDS011;40411;50.090;21.954;2024-01-16T09:04:20;4.20;;;1.95;;
54502;SDS011;40411;50.090;21.954;2024-01-16T09:06:45;5.68;;;2.05;;
54502;SDS011;40411;50.090;21.954;2024-01-16T09:09:11;4.15;;;1.88;;
54502;SDS011;40411;50.090;21.954;2024-01-16T09:11:37;6.80;;;2.50;;
54502;SDS011;40411;50.090;21.954;2024-01-16T09:14:04;7.03;;;3.15;;
54502;SDS011;40411;50.090;21.954;2024-01-16T09:16:29;5.32;;;2.33;;
54502;SDS011;40411;50.090;21.954;2024-01-16T09:18:56;2.53;;;1.42;;
54502;SDS011;40411;50.090;21.954;2024-01-16T09:21:22;2.78;;;1.65;;
54502;SDS011;40411;50.090;21.954;2024-01-16T09:23:48;11.18;;;2.67;;
54502;SDS011;40411;50.090;21.954;2024-01-16T09:26:13;12.32;;;2.05;;
54502;SDS011;40411;50.090;21.954;2024-01-16T09:28:39;5.32;;;1.48;;
54502;SDS011;40411;50.090;21.954;2024-01-16T09:31:08;4.22;;;1.95;;
54502;SDS011;40411;50.090;21.954;2024-01-16T09:33:34;5.90;;;1.70;;
54502;SDS011;40411;50.090;21.954;2024-01-16T09:36:00;5.70;;;2.78;;
54502;SDS011;40411;50.090;21.954;2024-01-16T09:38:26;8.68;;;3.78;;
54502;SDS011;40411;50.090;21.954;2024-01-16T09:40:52;9.90;;;4.25;;
54502;SDS011;40411;50.090;21.954;2024-01-16T09:43:22;3.63;;;1.80;;
54502;SDS011;40411;50.090;21.954;2024-01-16T09:45:48;10.48;;;3.15;;
54502;SDS011;40411;50.090;21.954;2024-01-16T09:48:16;5.15;;;2.60;;
54502;SDS011;40411;50.090;21.954;2024-01-16T09:50:42;4.07;;;2.17;;
54502;SDS011;40411;50.090;21.954;2024-01-16T09:53:08;4.15;;;1.10;;
54502;SDS011;40411;50.090;21.954;2024-01-16T09:55:34;7.10;;;3.20;;
54502;SDS011;40411;50.090;21.954;2024-01-16T09:58:00;3.17;;;1.83;;
54502;SDS011;40411;50.090;21.954;2024-01-16T10:00:28;4.97;;;1.95;;
54502;SDS011;40411;50.090;21.954;2024-01-16T10:02:55;3.13;;;1.77;;
54502;SDS011;40411;50.090;21.954;2024-01-16T10:05:24;8.55;;;2.38;;
54502;SDS011;40411;50.090;21.954;2024-01-16T10:07:50;11.30;;;2.08;;
54502;SDS011;40411;50.090;21.954;2024-01-16T10:10:17;3.20;;;1.58;;
54502;SDS011;40411;50.090;21.954;2024-01-16T10:12:44;3.75;;;2.00;;
54502;SDS011;40411;50.090;21.954;2024-01-16T10:15:09;4.50;;;1.98;;
54502;SDS011;40411;50.090;21.954;2024-01-16T10:17:37;5.68;;;2.38;;
54502;SDS011;40411;50.090;21.954;2024-01-16T10:20:10;4.82;;;2.40;;
54502;SDS011;40411;50.090;21.954;2024-01-16T10:22:52;4.97;;;2.70;;
54502;SDS011;40411;50.090;21.954;2024-01-16T10:25:18;3.13;;;1.88;;
54502;SDS011;40411;50.090;21.954;2024-01-16T10:27:46;3.92;;;1.85;;
54502;SDS011;40411;50.090;21.954;2024-01-16T10:30:13;3.55;;;1.92;;
54502;SDS011;40411;50.090;21.954;2024-01-16T10:32:40;8.50;;;2.33;;
54502;SDS011;40411;50.090;21.954;2024-01-16T10:37:40;5.93;;;1.98;;
54502;SDS011;40411;50.090;21.954;2024-01-16T10:40:08;2.72;;;1.30;;
54502;SDS011;40411;50.090;21.954;2024-01-16T10:42:35;7.20;;;1.92;;
54502;SDS011;40411;50.090;21.954;2024-01-16T10:45:01;3.67;;;1.95;;
54502;SDS011;40411;50.090;21.954;2024-01-16T10:47:27;3.75;;;1.60;;
54502;SDS011;40411;50.090;21.954;2024-01-16T10:49:53;1.58;;;0.70;;
54502;SDS011;40411;50.090;21.954;2024-01-16T10:52:21;4.18;;;2.70;;
54502;SDS011;40411;50.090;21.954;2024-01-16T10:54:50;7.10;;;3.00;;
54502;SDS011;40411;50.090;21.954;2024-01-16T10:57:17;7.25;;;1.95;;
54502;SDS011;40411;50.090;21.954;2024-01-16T10:59:55;4.78;;;2.42;;
54502;SDS011;40411;50.090;21.954;2024-01-16T11:02:32;8.43;;;3.78;;
54502;SDS011;40411;50.090;21.954;2024-01-16T11:05:14;4.47;;;2.10;;
54502;SDS011;40411;50.090;21.954;2024-01-16T11:07:42;5.38;;;1.92;;
54502;SDS011;40411;50.090;21.954;2024-01-16T11:10:09;13.02;;;4.45;;
54502;SDS011;40411;50.090;21.954;2024-01-16T11:12:39;7.93;;;3.50;;
54502;SDS011;40411;50.090;21.954;2024-01-16T11:15:06;18.95;;;8.07;;
54502;SDS011;40411;50.090;21.954;2024-01-16T11:17:34;9.25;;;4.47;;
54502;SDS011;40411;50.090;21.954;2024-01-16T11:20:01;11.70;;;6.50;;
54502;SDS011;40411;50.090;21.954;2024-01-16T11:22:31;8.30;;;3.20;;
54502;SDS011;40411;50.090;21.954;2024-01-16T11:25:07;9.35;;;3.10;;
54502;SDS011;40411;50.090;21.954;2024-01-16T11:27:35;32.83;;;4.97;;
54502;SDS011;40411;50.090;21.954;2024-01-16T11:30:02;7.50;;;3.38;;
54502;SDS011;40411;50.090;21.954;2024-01-16T11:32:37;10.68;;;3.75;;
54502;SDS011;40411;50.090;21.954;2024-01-16T11:37:30;7.93;;;3.13;;
54502;SDS011;40411;50.090;21.954;2024-01-16T11:42:43;6.22;;;2.38;;
54502;SDS011;40411;50.090;21.954;2024-01-16T11:50:37;16.85;;;7.18;;
54502;SDS011;40411;50.090;21.954;2024-01-16T11:53:03;9.32;;;4.93;;
54502;SDS011;40411;50.090;21.954;2024-01-16T11:55:33;9.25;;;5.65;;
54502;SDS011;40411;50.090;21.954;2024-01-16T12:03:33;18.35;;;3.70;;
54502;SDS011;40411;50.090;21.954;2024-01-16T12:06:00;12.40;;;5.07;;
54502;SDS011;40411;50.090;21.954;2024-01-16T12:08:32;14.68;;;6.53;;
54502;SDS011;40411;50.090;21.954;2024-01-16T12:10:58;32.88;;;4.80;;
54502;SDS011;40411;50.090;21.954;2024-01-16T12:13:25;18.15;;;5.50;;
54502;SDS011;40411;50.090;21.954;2024-01-16T12:16:00;21.85;;;7.72;;
54502;SDS011;40411;50.090;21.954;2024-01-16T12:18:29;30.45;;;9.88;;
54502;SDS011;40411;50.090;21.954;2024-01-16T12:20:55;26.92;;;10.57;;
54502;SDS011;40411;50.090;21.954;2024-01-16T12:23:21;14.85;;;6.25;;
54502;SDS011;40411;50.090;21.954;2024-01-16T12:25:51;14.77;;;7.00;;
54502;SDS011;40411;50.090;21.954;2024-01-16T12:28:20;29.52;;;11.88;;
54502;SDS011;40411;50.090;21.954;2024-01-16T12:30:49;22.88;;;8.55;;
54502;SDS011;40411;50.090;21.954;2024-01-16T12:33:20;9.38;;;4.50;;
54502;SDS011;40411;50.090;21.954;2024-01-16T12:35:47;24.98;;;12.43;;
54502;SDS011;40411;50.090;21.954;2024-01-16T12:38:15;17.40;;;7.80;;
54502;SDS011;40411;50.090;21.954;2024-01-16T12:40:47;21.92;;;8.52;;
54502;SDS011;40411;50.090;21.954;2024-01-16T12:43:17;24.83;;;8.65;;
54502;SDS011;40411;50.090;21.954;2024-01-16T12:45:44;17.85;;;6.68;;
54502;SDS011;40411;50.090;21.954;2024-01-16T12:48:10;15.60;;;6.70;;
54502;SDS011;40411;50.090;21.954;2024-01-16T12:50:36;25.52;;;6.70;;
54502;SDS011;40411;50.090;21.954;2024-01-16T12:53:06;12.30;;;5.03;;
54502;SDS011;40411;50.090;21.954;2024-01-16T12:55:35;18.60;;;6.38;;
54502;SDS011;40411;50.090;21.954;2024-01-16T12:58:18;14.05;;;5.15;;
54502;SDS011;40411;50.090;21.954;2024-01-16T13:00:46;13.60;;;3.08;;
54502;SDS011;40411;50.090;21.954;2024-01-16T13:03:16;9.68;;;3.70;;
54502;SDS011;40411;50.090;21.954;2024-01-16T13:05:43;4.97;;;2.75;;
54502;SDS011;40411;50.090;21.954;2024-01-16T13:08:16;11.57;;;4.05;;
54502;SDS011;40411;50.090;21.954;2024-01-16T13:10:42;8.43;;;3.80;;
54502;SDS011;40411;50.090;21.954;2024-01-16T13:15:42;18.55;;;6.93;;
54502;SDS011;40411;50.090;21.954;2024-01-16T13:18:22;11.75;;;5.38;;
54502;SDS011;40411;50.090;21.954;2024-01-16T13:20:54;15.80;;;6.00;;
54502;SDS011;40411;50.090;21.954;2024-01-16T13:23:22;10.13;;;5.07;;
54502;SDS011;40411;50.090;21.954;2024-01-16T13:25:50;24.75;;;9.55;;
54502;SDS011;40411;50.090;21.954;2024-01-16T13:28:17;8.38;;;5.07;;
54502;SDS011;40411;50.090;21.954;2024-01-16T13:30:45;10.40;;;3.58;;
54502;SDS011;40411;50.090;21.954;2024-01-16T13:33:12;11.60;;;5.43;;
54502;SDS011;40411;50.090;21.954;2024-01-16T13:35:39;13.40;;;5.35;;
54502;SDS011;40411;50.090;21.954;2024-01-16T13:38:12;7.82;;;3.40;;
54502;SDS011;40411;50.090;21.954;2024-01-16T13:40:41;4.90;;;2.63;;
54502;SDS011;40411;50.090;21.954;2024-01-16T13:43:07;14.68;;;3.53;;
54502;SDS011;40411;50.090;21.954;2024-01-16T13:45:33;5.60;;;2.22;;
54502;SDS011;40411;50.090;21.954;2024-01-16T13:48:01;9.32;;;3.72;;
54502;SDS011;40411;50.090;21.954;2024-01-16T13:50:27;9.43;;;3.22;;
54502;SDS011;40411;50.090;21.954;2024-01-16T13:52:54;13.77;;;5.53;;
54502;SDS011;40411;50.090;21.954;2024-01-16T13:55:20;15.90;;;6.55;;
54502;SDS011;40411;50.090;21.954;2024-01-16T13:57:46;9.45;;;4.95;;
54502;SDS011;40411;50.090;21.954;2024-01-16T14:00:13;13.40;;;4.63;;
54502;SDS011;40411;50.090;21.954;2024-01-16T14:02:44;17.30;;;5.75;;
54502;SDS011;40411;50.090;21.954;2024-01-16T14:05:13;12.38;;;4.53;;
54502;SDS011;40411;50.090;21.954;2024-01-16T14:07:47;13.15;;;5.35;;
54502;SDS011;40411;50.090;21.954;2024-01-16T14:10:15;9.75;;;4.38;;
54502;SDS011;40411;50.090;21.954;2024-01-16T14:12:43;11.55;;;4.65;;
54502;SDS011;40411;50.090;21.954;2024-01-16T14:15:10;10.38;;;4.63;;
54502;SDS011;40411;50.090;21.954;2024-01-16T14:17:48;5.60;;;3.00;;
54502;SDS011;40411;50.090;21.954;2024-01-16T14:20:20;10.90;;;3.40;;
54502;SDS011;40411;50.090;21.954;2024-01-16T14:22:49;11.88;;;6.55;;
54502;SDS011;40411;50.090;21.954;2024-01-16T14:25:15;12.55;;;5.68;;
54502;SDS011;40411;50.090;21.954;2024-01-16T14:27:45;8.88;;;5.15;;
54502;SDS011;40411;50.090;21.954;2024-01-16T14:30:20;11.63;;;6.05;;
54502;SDS011;40411;50.090;21.954;2024-01-16T14:32:46;16.20;;;8.65;;
54502;SDS011;40411;50.090;21.954;2024-01-16T14:35:13;16.13;;;8.80;;
54502;SDS011;40411;50.090;21.954;2024-01-16T14:37:40;16.67;;;7.50;;
54502;SDS011;40411;50.090;21.954;2024-01-16T14:40:08;14.45;;;8.68;;
54502;SDS011;40411;50.090;21.954;2024-01-16T14:42:38;12.45;;;6.68;;
54502;SDS011;40411;50.090;21.954;2024-01-16T14:45:05;23.17;;;9.07;;
54502;SDS011;40411;50.090;21.954;2024-01-16T14:47:33;19.42;;;9.77;;
54502;SDS011;40411;50.090;21.954;2024-01-16T14:49:59;22.98;;;10.40;;
54502;SDS011;40411;50.090;21.954;2024-01-16T14:52:25;36.83;;;11.68;;